Αρχική σελίδα
METAR-TAF:

METAR-TAF

Αεροδρόμια :

Ονιάρα, Γκουανταλκανάλ, Νήσοι Σολομώντα

γεωγραφικό πλάτος: 09-25S, γεωγραφικό μήκος: 160-03E, υψόμετρο: 8 μ

Παρών καιρός

Η αναφορά έγινε 17 λεπτά πριν, στις 04:00 UTC
Άνεμος 8 kt από Α
Θερμοκρασία 32°C
Υγρασία 75%
Πίεση 1006 hPa
Ορατότητα 10 χλμ και άνω
Διάσπαρτα νέφη σε ύψος 1900 πόδια
Λίγα νέφη σε ύψος 2000 πόδια, Σωρειτομελανίτες.
Διάσπαρτα νέφη σε ύψος 30000 πόδια

METAR: AGGH 250400Z 09008KT 9999 SCT019 FEW020CB SCT300 32/27 Q1006

Χρόνος: 15:17 (04:17 UTC)

Πρόγνωση Καιρού

Η αναφορά έγινε 4 ώρες και 37 λεπτά πριν, στις 23:40 UTC
Η πρόγνωση ισχύει από τις 24 στις 00 UTC έως τις 24 στις 24 UTC
Άνεμος 8 kt από Α/BA
Ορατότητα: 1009 μ
Διάσπαρτα νέφη σε ύψος 1900 πόδια

TAF: AGGH 232340Z 2400/2424 07008KT 9999 SCT019 T 31 32 30 28 Q 1010 1008 1007 1009 TAF3

Μετεωρολογικές αναφορές και προγνώσεις για περισσότερα από 4000 αεροδρόμια (δελτία METAR και TAF).

Οι διαθέσιμοι σταθμοί απεικονίζονται στο χάρτη με κίτρινες και κόκκινες κουκκίδες.

Μετακινήστε το ποντίκι πάνω από τις κουκκίδες για να δείτε το όνομα του σταθμού.

Στη συνέχεια, κάντε κλικ για να δείτε τις μετεωρολογικές αναφορές και τις προγνώσεις καιρού.

Για να αλλάξετε το χάρτη: κάντε κλικ στα πράσινα κουμπιά με τον μαύρο σταυρό για να ζουμάρετε, στο πράσινο κουμπί με την παύλα για να αφαιρέσετε το ζουμ ή στα πράσινα βέλη για να αντιπαραβάλλετε χάρτες.


METAR-TAF: